ROMMA est une association bénévole à but non lucratif. Votre soutien est indispensable : ADHERER à ROMMA ou FAIRE un DON

Granges-lès-Beaumont - (26, Drôme)

Drôme des Collines (155 m)   Longitude: 04°58'E   Latitude: 45°03'N Station partenaire n°123
 

Détail journalier du     <<     >>

Température Precipitation Humidité Pression Vent Dir Rafale Dir. rafale Ensol.
Heure (°C) (mm) (%) (hPa) (km/h) (km/h) (min)
01:00 3.308510302NO6NO0
02:00 2.708610312NO10NO0
03:00 1.908710312NNO6NO0
04:00 1.608810321NNO8NNO0
05:00 1.7089103206ENE0
06:00 1.808910332NE10NE0
07:00 2.508910334ENE11E0
08:00 3.509010336ENE13ENE0
09:00 4.0089103311E21E0
10:00 5.608710339E19ENE0
11:00 8.308110338ENE15ENE0
12:00 12.207210335E15E10
13:00 14.206810335OSO13SO60
14:00 14.006310335SSO13S20
15:00 16.205910324N13E60
16:00 15.205810323NO10OSO60
17:00 14.706110314OSO10OSO60
18:00 13.606510315ONO8OSO50
19:00 10.407410313O10NO0
20:00 9.007910318NNO13NNO0
21:00 7.608110327NNO13NNO0
22:00 6.308410322ONO10ONO0
23:00 5.908510323NO8N0
minuit 4.708510335NO10NNO0

Graphique du 24-02-2019

 

Serveur OMMA